Maldives Meteorological Service

METAR

Station
VRMM
METAR VRMM 221400Z 26009KT 9999 FEW018 BKN270 31/26 Q1009 NOSIG=
VRMH
METAR VRMH 221400Z 29005KT 9999 FEW018TCU BKN270 30/27 Q1008=
VRMK
METAR VRMK 221300Z 25004KT 9000 –TSRA FEW017 FEW018CB BKN110 27/25 Q1009 RETS CB NE,E,SE=
VRMT
METAR VRMT 221400Z 25012KT 9999 FEW018 FEW019CB BKN260 28/26 Q1010 CB NW=
VRMG
METAR VRMG 221400Z 28016KT 9999 FEW017TCU BKN120 27/26 Q1010 CB S,SE TEMPO 5000 –TSRA=
Last Updated : 2019-05-22 18:59:34

SPECI

Station
VRMM
VRMH
VRMK
SPECI VRMK 221352Z 24006KT 9000 –RA FEW017 FEW018CB OVC110 27/25 Q1010 RETS CB NE,WSW=
VRMT
VRMG
Last Updated : 2019-05-22 18:59:34